createdAt,value
2022-07-25T00:02:01.264Z,96.40
2022-07-25T00:04:29.913Z,96.10
2022-07-25T00:06:59.124Z,95.50
2022-07-25T00:09:26.850Z,95.40
2022-07-25T00:11:54.605Z,95.00
2022-07-25T00:14:22.418Z,95.00
2022-07-25T00:16:50.138Z,95.10
2022-07-25T00:19:18.120Z,95.40
2022-07-25T00:21:45.881Z,96.00
2022-07-25T00:24:14.946Z,96.20
2022-07-25T00:26:42.638Z,96.30
2022-07-25T00:29:10.616Z,96.50
2022-07-25T00:31:38.479Z,96.90
2022-07-25T00:34:06.593Z,96.80
2022-07-25T00:36:34.656Z,96.50
2022-07-25T00:39:02.491Z,97.00
2022-07-25T00:41:31.591Z,97.30
2022-07-25T00:43:59.434Z,97.50
2022-07-25T00:46:27.231Z,97.50
2022-07-25T00:48:55.485Z,97.30
2022-07-25T00:51:23.744Z,97.60
2022-07-25T00:53:51.488Z,97.90
2022-07-25T00:56:19.592Z,98.30
2022-07-25T00:58:48.671Z,98.10
2022-07-25T01:01:16.638Z,97.80
2022-07-25T01:03:44.478Z,97.70
2022-07-25T01:06:12.499Z,98.10
2022-07-25T01:08:40.432Z,98.00
2022-07-25T01:11:10.592Z,98.00
2022-07-25T01:13:38.382Z,97.90
2022-07-25T01:16:07.882Z,98.20
2022-07-25T01:18:35.624Z,98.00
2022-07-25T01:21:04.876Z,98.00
2022-07-25T01:23:32.682Z,98.20
2022-07-25T01:26:00.490Z,98.20
2022-07-25T01:28:28.251Z,98.60
2022-07-25T01:30:56.005Z,98.60
2022-07-25T01:33:23.806Z,99.00
2022-07-25T01:35:51.575Z,99.30
2022-07-25T01:38:20.661Z,99.30
2022-07-25T01:40:48.418Z,99.40
2022-07-25T01:43:16.154Z,99.40
2022-07-25T01:45:43.876Z,99.50
2022-07-25T01:48:11.620Z,99.90
2022-07-25T01:50:39.410Z,99.90
2022-07-25T01:53:07.184Z,99.70
2022-07-25T01:55:36.354Z,99.90
2022-07-25T01:58:04.330Z,99.90
2022-07-25T02:00:34.066Z,99.90
2022-07-25T02:03:19.480Z,99.90
2022-07-25T02:05:47.219Z,99.90
2022-07-25T02:08:14.952Z,99.90
2022-07-25T02:10:44.240Z,99.90
2022-07-25T02:13:11.954Z,99.90
2022-07-25T02:15:39.689Z,99.90
2022-07-25T02:18:07.425Z,99.90
2022-07-25T02:20:35.201Z,99.90
2022-07-25T02:23:03.656Z,99.90
2022-07-25T02:25:31.524Z,99.90
2022-07-25T02:28:01.008Z,99.90
2022-07-25T02:30:29.085Z,99.90
2022-07-25T02:32:56.872Z,99.90
2022-07-25T02:35:24.650Z,99.90
2022-07-25T02:37:52.439Z,99.90
2022-07-25T02:40:20.170Z,99.90
2022-07-25T02:42:47.916Z,99.90
2022-07-25T02:45:17.042Z,99.90
2022-07-25T02:47:44.868Z,99.90
2022-07-25T02:50:15.024Z,99.90
2022-07-25T02:52:42.975Z,99.90
2022-07-25T02:55:11.542Z,99.90
2022-07-25T02:57:39.409Z,99.90
2022-07-25T03:00:08.265Z,99.90
2022-07-25T03:02:37.359Z,99.90
2022-07-25T03:05:06.759Z,99.90
2022-07-25T03:07:34.546Z,99.90
2022-07-25T03:10:02.334Z,99.90
2022-07-25T03:12:36.683Z,99.90
2022-07-25T03:15:05.564Z,99.90
2022-07-25T03:17:33.577Z,99.90
2022-07-25T03:20:02.752Z,99.90
2022-07-25T03:22:30.505Z,99.90
2022-07-25T03:24:58.242Z,99.90
2022-07-25T03:27:26.032Z,99.90
2022-07-25T03:29:54.331Z,99.90
2022-07-25T03:32:23.138Z,99.90
2022-07-25T03:34:50.831Z,99.90
2022-07-25T03:37:19.930Z,99.90
2022-07-25T03:39:47.682Z,99.90
2022-07-25T03:42:15.436Z,99.90
2022-07-25T03:44:43.210Z,99.90
2022-07-25T03:47:10.935Z,99.90
2022-07-25T03:49:48.696Z,99.90
2022-07-25T03:52:16.409Z,99.90
2022-07-25T03:54:45.476Z,99.90
2022-07-25T03:57:13.299Z,99.90
2022-07-25T03:59:41.028Z,99.90
2022-07-25T04:02:08.812Z,99.90
2022-07-25T04:04:36.714Z,99.90
2022-07-25T04:07:05.381Z,99.90
2022-07-25T04:09:33.798Z,99.90
2022-07-25T04:12:04.235Z,99.90
2022-07-25T04:14:31.931Z,99.90
2022-07-25T04:16:59.928Z,99.90
2022-07-25T04:19:28.843Z,99.90
2022-07-25T04:21:56.804Z,99.90
2022-07-25T04:24:24.547Z,99.90
2022-07-25T04:26:52.305Z,99.90
2022-07-25T04:29:21.344Z,99.90
2022-07-25T04:31:49.124Z,99.90
2022-07-25T04:34:16.928Z,99.90
2022-07-25T04:36:44.663Z,99.90
2022-07-25T04:39:12.407Z,99.90
2022-07-25T04:41:40.168Z,99.90
2022-07-25T04:44:08.940Z,99.90
2022-07-25T04:46:38.491Z,99.90
2022-07-25T04:49:06.308Z,99.90
2022-07-25T04:51:34.061Z,99.90
2022-07-25T04:54:01.783Z,99.90
2022-07-25T04:56:29.564Z,99.90
2022-07-25T04:59:00.611Z,99.90
2022-07-25T05:01:31.086Z,99.90
2022-07-25T05:04:00.167Z,99.90
2022-07-25T05:06:27.986Z,99.90
2022-07-25T05:08:55.786Z,99.90
2022-07-25T05:11:23.504Z,99.90
2022-07-25T05:13:51.904Z,99.90
2022-07-25T05:16:19.692Z,99.90
2022-07-25T05:18:47.428Z,99.90
2022-07-25T05:21:16.475Z,99.90
2022-07-25T05:23:44.215Z,99.90
2022-07-25T05:26:11.987Z,99.90
2022-07-25T05:28:39.739Z,99.90
2022-07-25T05:31:07.641Z,99.90
2022-07-25T05:33:35.651Z,99.90
2022-07-25T05:36:05.092Z,99.90
2022-07-25T05:38:34.434Z,99.90
2022-07-25T05:41:02.156Z,99.90
2022-07-25T05:43:29.890Z,99.90
2022-07-25T05:46:01.117Z,99.90
2022-07-25T05:48:28.882Z,99.90
2022-07-25T05:50:56.754Z,99.90
2022-07-25T05:53:24.541Z,99.90
2022-07-25T05:55:53.622Z,99.90
2022-07-25T05:58:23.954Z,99.90
2022-07-25T06:00:55.593Z,99.90
2022-07-25T06:03:23.426Z,99.90
2022-07-25T06:05:51.220Z,99.90
2022-07-25T06:08:18.958Z,99.90
2022-07-25T06:10:46.760Z,99.90
2022-07-25T06:13:16.107Z,99.90
2022-07-25T06:15:43.862Z,99.90
2022-07-25T06:18:13.536Z,99.90
2022-07-25T06:20:41.252Z,99.90
2022-07-25T06:23:09.086Z,99.90
2022-07-25T06:25:36.835Z,99.90
2022-07-25T06:28:04.662Z,99.90
2022-07-25T06:30:33.978Z,99.90
2022-07-25T06:33:01.868Z,99.90
2022-07-25T06:35:29.603Z,99.90
2022-07-25T06:37:57.325Z,99.90
2022-07-25T06:40:25.321Z,99.90
2022-07-25T06:42:53.523Z,99.90
2022-07-25T06:45:21.287Z,99.90
2022-07-25T06:47:50.347Z,99.90
2022-07-25T06:50:21.379Z,99.90
2022-07-25T06:52:49.467Z,99.90
2022-07-25T06:55:17.258Z,99.90
2022-07-25T06:57:44.972Z,99.90
2022-07-25T07:00:13.800Z,99.90
2022-07-25T07:02:53.483Z,99.90
2022-07-25T07:05:21.648Z,99.90
2022-07-25T07:07:49.362Z,99.90
2022-07-25T07:10:17.139Z,99.90
2022-07-25T07:12:45.017Z,99.90
2022-07-25T07:15:13.127Z,99.90
2022-07-25T07:17:40.862Z,99.90
2022-07-25T07:20:10.655Z,99.50
2022-07-25T07:22:45.283Z,99.50
2022-07-25T07:25:14.054Z,99.90
2022-07-25T07:27:41.950Z,99.90
2022-07-25T07:30:10.530Z,98.90
2022-07-25T07:32:39.153Z,99.40
2022-07-25T07:35:07.374Z,99.00
2022-07-25T07:37:41.392Z,98.90
2022-07-25T07:40:17.142Z,98.60
2022-07-25T07:42:47.049Z,98.80
2022-07-25T07:45:15.414Z,99.80
2022-07-25T07:47:43.183Z,98.70
2022-07-25T07:50:11.291Z,98.90
2022-07-25T07:52:40.372Z,99.20
2022-07-25T07:55:26.000Z,98.40
2022-07-25T07:57:53.751Z,98.60
2022-07-25T08:00:21.717Z,98.50
2022-07-25T08:02:50.987Z,98.20
2022-07-25T08:05:23.116Z,98.10
2022-07-25T08:07:52.542Z,98.60
2022-07-25T08:10:21.633Z,98.30
2022-07-25T08:12:50.004Z,97.40
2022-07-25T08:15:18.576Z,97.50
2022-07-25T08:17:46.977Z,97.70
2022-07-25T08:20:37.001Z,97.40
2022-07-25T08:23:04.601Z,97.70
2022-07-25T08:25:32.388Z,96.60
2022-07-25T08:28:00.472Z,96.40
2022-07-25T08:30:28.202Z,96.50
2022-07-25T08:32:57.270Z,95.70
2022-07-25T08:35:25.740Z,95.70
2022-07-25T08:37:53.789Z,95.30
2022-07-25T08:40:23.781Z,95.30
2022-07-25T08:42:51.765Z,95.20
2022-07-25T08:45:20.415Z,94.30
2022-07-25T08:47:48.556Z,94.30
2022-07-25T08:50:17.209Z,93.90
2022-07-25T08:52:45.404Z,93.80
2022-07-25T08:55:14.686Z,93.50
2022-07-25T08:57:44.903Z,93.40
2022-07-25T09:00:13.545Z,93.50
2022-07-25T09:02:41.453Z,93.40
2022-07-25T09:05:09.829Z,92.80
2022-07-25T09:07:38.520Z,92.90
2022-07-25T09:10:13.084Z,93.30
2022-07-25T09:12:41.038Z,92.60
2022-07-25T09:15:10.593Z,92.90
2022-07-25T09:17:50.444Z,92.80
2022-07-25T09:20:18.610Z,91.90
2022-07-25T09:22:46.617Z,91.30
2022-07-25T09:25:24.608Z,91.10
2022-07-25T09:27:52.697Z,90.80
2022-07-25T09:30:21.799Z,91.10
2022-07-25T09:32:59.683Z,90.90
2022-07-25T09:35:31.063Z,90.90
2022-07-25T09:38:07.653Z,90.60
2022-07-25T09:40:35.349Z,90.30
2022-07-25T09:43:03.054Z,90.30
2022-07-25T09:45:32.360Z,90.90
2022-07-25T09:48:00.930Z,89.80
2022-07-25T09:50:29.686Z,89.20
2022-07-25T09:52:58.505Z,89.60
2022-07-25T09:55:26.288Z,88.80
2022-07-25T09:57:54.043Z,87.70
2022-07-25T10:00:23.412Z,88.00
2022-07-25T10:02:57.330Z,88.60
2022-07-25T10:05:31.834Z,88.90
2022-07-25T10:08:00.051Z,88.80
2022-07-25T10:10:28.718Z,88.40
2022-07-25T10:13:00.917Z,88.20
2022-07-25T10:15:39.871Z,89.20
2022-07-25T10:18:09.231Z,87.10
2022-07-25T10:20:37.216Z,87.10
2022-07-25T10:23:05.989Z,86.50
2022-07-25T10:25:33.915Z,86.30
2022-07-25T10:28:08.227Z,85.80
2022-07-25T10:30:37.396Z,84.80
2022-07-25T10:33:06.462Z,86.50
2022-07-25T10:35:35.565Z,84.70
2022-07-25T10:38:04.898Z,84.70
2022-07-25T10:40:36.675Z,84.60
2022-07-25T10:43:14.111Z,85.00
2022-07-25T10:45:42.545Z,82.20
2022-07-25T10:48:11.510Z,81.90
2022-07-25T10:50:58.135Z,82.50
2022-07-25T10:53:32.983Z,83.00
2022-07-25T10:56:06.302Z,82.80
2022-07-25T10:58:48.376Z,81.30
2022-07-25T11:01:20.176Z,81.40
2022-07-25T11:03:47.914Z,81.40
2022-07-25T11:06:17.686Z,81.00
2022-07-25T11:08:45.790Z,80.00
2022-07-25T11:11:14.050Z,80.00
2022-07-25T11:13:44.263Z,80.00
2022-07-25T11:16:12.258Z,80.00
2022-07-25T11:18:41.721Z,80.50
2022-07-25T11:21:09.873Z,79.50
2022-07-25T11:23:41.256Z,80.80
2022-07-25T11:26:10.274Z,79.20
2022-07-25T11:28:41.537Z,78.60
2022-07-25T11:31:09.497Z,79.80
2022-07-25T11:33:38.766Z,78.30
2022-07-25T11:36:07.201Z,77.50
2022-07-25T11:38:36.901Z,77.30
2022-07-25T11:41:06.066Z,76.50
2022-07-25T11:43:33.925Z,77.50
2022-07-25T11:46:02.707Z,76.50
2022-07-25T11:48:32.208Z,75.40
2022-07-25T11:51:09.567Z,73.80
2022-07-25T11:53:41.859Z,75.00
2022-07-25T11:56:40.842Z,73.80
2022-07-25T11:59:05.789Z,72.80
2022-07-25T12:01:37.608Z,72.40
2022-07-25T12:04:09.088Z,72.40
2022-07-25T12:06:37.013Z,71.60
2022-07-25T12:09:16.332Z,72.60
2022-07-25T12:11:48.064Z,73.20
2022-07-25T12:14:16.108Z,74.10
2022-07-25T12:16:43.917Z,74.50
2022-07-25T12:19:18.879Z,74.60
2022-07-25T12:21:46.670Z,71.50
2022-07-25T12:24:14.508Z,71.70
2022-07-25T12:26:42.519Z,71.40
2022-07-25T12:29:11.562Z,71.70
2022-07-25T12:31:39.367Z,70.90
2022-07-25T12:34:07.208Z,71.80
2022-07-25T12:36:41.069Z,71.80
2022-07-25T12:39:09.267Z,71.90
2022-07-25T12:41:37.297Z,71.50
2022-07-25T12:44:05.196Z,71.30
2022-07-25T12:46:34.576Z,71.40
2022-07-25T12:49:03.606Z,72.60
2022-07-25T12:51:31.602Z,72.50
2022-07-25T12:53:59.425Z,72.70
2022-07-25T12:56:27.153Z,72.50
2022-07-25T12:58:55.745Z,72.90
2022-07-25T13:01:23.637Z,73.50
2022-07-25T13:03:52.728Z,73.70
2022-07-25T13:06:20.805Z,74.10
2022-07-25T13:08:48.616Z,73.80
2022-07-25T13:11:16.364Z,74.00
2022-07-25T13:13:44.062Z,73.60
2022-07-25T13:16:11.859Z,73.00
2022-07-25T13:18:39.648Z,72.70
2022-07-25T13:21:08.802Z,73.50
2022-07-25T13:23:36.707Z,74.10
2022-07-25T13:26:04.528Z,80.50
2022-07-25T13:28:32.547Z,79.20
2022-07-25T13:31:01.720Z,79.80
2022-07-25T13:33:29.678Z,79.40
2022-07-25T13:35:57.379Z,78.80
2022-07-25T13:38:26.614Z,79.30
2022-07-25T13:40:58.718Z,76.60
2022-07-25T13:43:26.740Z,76.90
2022-07-25T13:45:54.645Z,76.80
2022-07-25T13:48:31.641Z,75.90
2022-07-25T13:50:59.847Z,75.10
2022-07-25T13:53:30.585Z,73.40
2022-07-25T13:55:59.045Z,72.30
2022-07-25T13:58:27.040Z,71.70
2022-07-25T14:00:55.049Z,72.20
2022-07-25T14:03:22.946Z,71.60
2022-07-25T14:05:50.708Z,71.30
2022-07-25T14:08:18.532Z,71.40
2022-07-25T14:10:47.668Z,71.20
2022-07-25T14:13:15.841Z,72.40
2022-07-25T14:15:43.530Z,71.60
2022-07-25T14:18:11.474Z,71.80
2022-07-25T14:20:39.250Z,72.00
2022-07-25T14:23:07.007Z,72.30
2022-07-25T14:25:34.706Z,71.80
2022-07-25T14:28:03.851Z,72.40
2022-07-25T14:30:31.553Z,72.50
2022-07-25T14:32:59.294Z,73.10
2022-07-25T14:35:32.101Z,73.60
2022-07-25T14:38:00.457Z,73.60
2022-07-25T14:40:28.398Z,72.20
2022-07-25T14:42:56.095Z,72.70
2022-07-25T14:45:25.158Z,72.30
2022-07-25T14:47:53.923Z,74.40
2022-07-25T14:50:21.780Z,75.70
2022-07-25T14:52:49.509Z,75.80
2022-07-25T14:55:18.696Z,75.10
2022-07-25T14:57:46.431Z,73.90
2022-07-25T15:00:14.693Z,73.10
2022-07-25T15:02:44.114Z,71.90
2022-07-25T15:05:11.915Z,69.90
2022-07-25T15:07:39.982Z,70.40
2022-07-25T15:10:08.376Z,69.40
2022-07-25T15:12:36.358Z,69.90
2022-07-25T15:15:04.351Z,69.90
2022-07-25T15:17:32.113Z,69.60
2022-07-25T15:20:01.215Z,69.50
2022-07-25T15:22:29.015Z,68.70
2022-07-25T15:25:27.544Z,70.00
2022-07-25T15:27:44.464Z,70.60
2022-07-25T15:30:14.452Z,70.50
2022-07-25T15:32:42.175Z,70.60
2022-07-25T15:35:11.322Z,70.50
2022-07-25T15:37:39.093Z,70.60
2022-07-25T15:40:07.315Z,70.40
2022-07-25T15:42:35.100Z,70.20
2022-07-25T15:45:32.166Z,70.40
2022-07-25T15:47:51.346Z,69.50
2022-07-25T15:50:20.676Z,70.80
2022-07-25T15:52:48.523Z,71.70
2022-07-25T15:55:16.340Z,71.70
2022-07-25T15:57:44.136Z,71.60
2022-07-25T16:00:12.321Z,72.10
2022-07-25T16:02:40.112Z,71.60
2022-07-25T16:05:08.108Z,71.50
2022-07-25T16:07:37.500Z,71.10
2022-07-25T16:10:05.892Z,71.60
2022-07-25T16:12:33.653Z,71.50
2022-07-25T16:15:01.581Z,71.60
2022-07-25T16:17:29.288Z,71.90
2022-07-25T16:19:57.043Z,72.10
2022-07-25T16:22:24.997Z,72.70
2022-07-25T16:24:54.121Z,73.10
2022-07-25T16:27:21.851Z,73.90
2022-07-25T16:29:49.593Z,74.40
2022-07-25T16:32:17.304Z,74.30
2022-07-25T16:34:46.126Z,74.50
2022-07-25T16:37:14.114Z,74.00
2022-07-25T16:39:41.866Z,74.30
2022-07-25T16:42:11.003Z,72.80
2022-07-25T16:44:38.713Z,73.60
2022-07-25T16:47:07.650Z,73.80
2022-07-25T16:49:35.514Z,74.30
2022-07-25T16:52:03.267Z,74.70
2022-07-25T16:54:31.432Z,75.00
2022-07-25T16:56:59.901Z,75.00
2022-07-25T16:59:29.130Z,74.90
2022-07-25T17:01:56.967Z,75.10
2022-07-25T17:04:25.164Z,75.20
2022-07-25T17:06:52.932Z,75.50
2022-07-25T17:09:20.900Z,75.60
2022-07-25T17:11:48.638Z,78.50
2022-07-25T17:14:16.388Z,80.80
2022-07-25T17:16:45.645Z,82.00
2022-07-25T17:19:13.606Z,82.90
2022-07-25T17:21:41.331Z,83.60
2022-07-25T17:24:09.364Z,84.20
2022-07-25T17:26:37.310Z,84.50
2022-07-25T17:29:07.630Z,84.90
2022-07-25T17:31:35.770Z,85.20
2022-07-25T17:34:04.931Z,85.70
2022-07-25T17:36:32.687Z,85.70
2022-07-25T17:39:00.391Z,85.60
2022-07-25T17:41:28.113Z,86.20
2022-07-25T17:43:55.820Z,86.70
2022-07-25T17:46:23.601Z,86.70
2022-07-25T17:48:51.465Z,87.30
2022-07-25T17:51:20.594Z,87.80
2022-07-25T17:53:48.400Z,88.10
2022-07-25T17:56:16.237Z,88.30
2022-07-25T17:58:44.007Z,88.90
2022-07-25T18:01:11.779Z,89.40
2022-07-25T18:03:39.627Z,89.90
2022-07-25T18:06:07.437Z,90.20
2022-07-25T18:08:36.524Z,90.30
2022-07-25T18:11:04.364Z,90.40
2022-07-25T18:13:32.094Z,90.50
2022-07-25T18:15:59.869Z,90.60
2022-07-25T18:18:27.842Z,90.50
2022-07-25T18:20:55.566Z,90.50
2022-07-25T18:23:24.217Z,90.20
2022-07-25T18:25:54.256Z,90.30
2022-07-25T18:28:22.073Z,90.50
2022-07-25T18:30:49.811Z,90.50
2022-07-25T18:33:17.632Z,90.80
2022-07-25T18:35:45.487Z,90.90
2022-07-25T18:38:13.232Z,91.10
2022-07-25T18:40:41.054Z,91.40
2022-07-25T18:43:10.165Z,91.50
2022-07-25T18:45:38.405Z,91.60
2022-07-25T18:48:07.496Z,91.70
2022-07-25T18:50:35.311Z,91.90
2022-07-25T18:53:03.028Z,92.20
2022-07-25T18:55:30.761Z,92.30
2022-07-25T18:57:58.544Z,92.60
2022-07-25T19:00:27.575Z,92.90
2022-07-25T19:02:55.430Z,93.00
2022-07-25T19:05:23.292Z,93.30
2022-07-25T19:07:51.084Z,93.40
2022-07-25T19:10:18.863Z,93.60
2022-07-25T19:12:46.573Z,93.80
2022-07-25T19:15:15.421Z,94.00
2022-07-25T19:17:44.560Z,94.30
2022-07-25T19:20:12.648Z,94.50
2022-07-25T19:22:40.538Z,94.80
2022-07-25T19:25:10.925Z,94.90
2022-07-25T19:27:39.690Z,95.20
2022-07-25T19:30:13.887Z,95.40
2022-07-25T19:32:46.958Z,95.50
2022-07-25T19:35:14.666Z,96.00
2022-07-25T19:37:42.406Z,96.30
2022-07-25T19:40:10.781Z,96.30
2022-07-25T19:42:39.467Z,96.50
2022-07-25T19:45:07.834Z,96.80
2022-07-25T19:47:35.568Z,97.20
2022-07-25T19:50:04.794Z,97.40
2022-07-25T19:52:32.499Z,97.60
2022-07-25T19:55:00.283Z,97.90
2022-07-25T19:57:28.088Z,97.80
2022-07-25T19:59:55.812Z,98.20
2022-07-25T20:02:23.586Z,98.10
2022-07-25T20:04:51.548Z,98.30
2022-07-25T20:07:20.946Z,98.60
2022-07-25T20:09:48.692Z,98.70
2022-07-25T20:12:17.195Z,98.70
2022-07-25T20:14:44.937Z,98.70
2022-07-25T20:17:12.840Z,98.70
2022-07-25T20:19:40.612Z,99.00
2022-07-25T20:22:08.414Z,99.30
2022-07-25T20:24:37.508Z,99.10
2022-07-25T20:27:05.248Z,99.20
2022-07-25T20:29:32.966Z,99.30
2022-07-25T20:32:00.732Z,99.40
2022-07-25T20:34:28.433Z,99.30
2022-07-25T20:36:56.245Z,99.60
2022-07-25T20:39:24.011Z,99.80
2022-07-25T20:41:53.097Z,99.90
2022-07-25T20:44:20.947Z,99.90
2022-07-25T20:46:48.741Z,99.90
2022-07-25T20:49:16.630Z,99.90
2022-07-25T20:51:44.459Z,99.90
2022-07-25T20:54:12.738Z,99.90
2022-07-25T20:56:40.432Z,99.90
2022-07-25T20:59:09.918Z,99.90
2022-07-25T21:01:38.522Z,99.90
2022-07-25T21:04:07.804Z,99.90
2022-07-25T21:06:36.888Z,99.90
2022-07-25T21:09:05.550Z,99.90
2022-07-25T21:11:33.736Z,99.90
2022-07-25T21:14:01.501Z,99.90
2022-07-25T21:16:30.715Z,99.90
2022-07-25T21:18:58.558Z,99.90
2022-07-25T21:21:26.575Z,99.90
2022-07-25T21:23:54.424Z,99.90
2022-07-25T21:26:22.187Z,99.90
2022-07-25T21:28:49.900Z,99.90
2022-07-25T21:31:18.273Z,99.90
2022-07-25T21:33:47.370Z,99.90
2022-07-25T21:36:15.065Z,99.90
2022-07-25T21:38:42.792Z,99.90
2022-07-25T21:41:10.496Z,99.90
2022-07-25T21:43:38.182Z,99.90
2022-07-25T21:46:06.102Z,99.90
2022-07-25T21:48:47.922Z,99.90
2022-07-25T21:51:23.025Z,99.90
2022-07-25T21:53:52.482Z,99.90
2022-07-25T21:56:20.463Z,99.90
2022-07-25T21:58:48.842Z,99.90
2022-07-25T22:01:16.753Z,99.90
2022-07-25T22:03:44.658Z,99.90
2022-07-25T22:06:12.421Z,99.90
2022-07-25T22:08:41.455Z,99.90
2022-07-25T22:11:35.805Z,99.90
2022-07-25T22:13:59.319Z,99.90
2022-07-25T22:16:27.188Z,99.90
2022-07-25T22:18:54.944Z,99.90
2022-07-25T22:21:22.680Z,99.90
2022-07-25T22:23:51.768Z,99.90
2022-07-25T22:26:20.278Z,99.90
2022-07-25T22:28:48.043Z,99.90
2022-07-25T22:31:16.286Z,99.90
2022-07-25T22:33:44.032Z,99.90
2022-07-25T22:36:11.900Z,99.90
2022-07-25T22:38:39.666Z,99.90
2022-07-25T22:41:12.360Z,99.90
2022-07-25T22:43:48.699Z,99.90
2022-07-25T22:46:27.157Z,99.90
2022-07-25T22:48:55.008Z,99.90
2022-07-25T22:51:22.825Z,99.90
2022-07-25T22:53:50.536Z,99.90
2022-07-25T22:56:19.619Z,99.90
2022-07-25T22:58:48.927Z,99.90
2022-07-25T23:01:17.170Z,99.90
2022-07-25T23:03:45.050Z,99.90
2022-07-25T23:06:13.049Z,99.90
2022-07-25T23:08:41.497Z,99.90
2022-07-25T23:11:09.437Z,99.90
2022-07-25T23:13:38.460Z,99.90
2022-07-25T23:16:10.516Z,99.90
2022-07-25T23:18:38.520Z,99.90
2022-07-25T23:21:06.270Z,99.90
2022-07-25T23:23:34.297Z,99.90
2022-07-25T23:26:02.045Z,99.90
2022-07-25T23:28:29.841Z,99.90
2022-07-25T23:30:58.876Z,99.90
2022-07-25T23:33:26.950Z,99.90
2022-07-25T23:35:54.738Z,99.90
2022-07-25T23:38:22.551Z,99.90
2022-07-25T23:40:50.603Z,99.90
2022-07-25T23:43:23.543Z,99.90
2022-07-25T23:46:07.682Z,99.90
2022-07-25T23:48:35.777Z,99.90
2022-07-25T23:51:03.492Z,99.90
2022-07-25T23:53:34.511Z,99.90
2022-07-25T23:56:02.181Z,99.90
2022-07-25T23:58:29.853Z,99.90
